sensor_id;sensor_type;location;lat;lon;timestamp;P1;durP1;ratioP1;P2;durP2;ratioP2
83184;SDS011;73080;48.768;11.528;2023-11-18T00:02:05;8.77;;;2.95;;
83184;SDS011;73080;48.768;11.528;2023-11-18T00:04:30;6.78;;;2.95;;
83184;SDS011;73080;48.768;11.528;2023-11-18T00:06:56;6.68;;;3.08;;
83184;SDS011;73080;48.768;11.528;2023-11-18T00:09:21;5.27;;;2.30;;
83184;SDS011;73080;48.768;11.528;2023-11-18T00:11:46;7.53;;;3.38;;
83184;SDS011;73080;48.768;11.528;2023-11-18T00:14:12;7.50;;;3.53;;
83184;SDS011;73080;48.768;11.528;2023-11-18T00:16:37;7.85;;;3.63;;
83184;SDS011;73080;48.768;11.528;2023-11-18T00:19:03;7.07;;;3.38;;
83184;SDS011;73080;48.768;11.528;2023-11-18T00:21:28;8.63;;;4.10;;
83184;SDS011;73080;48.768;11.528;2023-11-18T00:23:53;8.05;;;3.85;;
83184;SDS011;73080;48.768;11.528;2023-11-18T00:26:19;7.57;;;4.30;;
83184;SDS011;73080;48.768;11.528;2023-11-18T00:28:44;9.70;;;3.30;;
83184;SDS011;73080;48.768;11.528;2023-11-18T00:31:13;10.10;;;3.90;;
83184;SDS011;73080;48.768;11.528;2023-11-18T00:33:38;8.90;;;3.80;;
83184;SDS011;73080;48.768;11.528;2023-11-18T00:36:07;8.30;;;3.83;;
83184;SDS011;73080;48.768;11.528;2023-11-18T00:38:32;10.82;;;3.63;;
83184;SDS011;73080;48.768;11.528;2023-11-18T00:40:58;9.45;;;4.13;;
83184;SDS011;73080;48.768;11.528;2023-11-18T00:43:24;10.07;;;3.88;;
83184;SDS011;73080;48.768;11.528;2023-11-18T00:45:49;8.83;;;4.23;;
83184;SDS011;73080;48.768;11.528;2023-11-18T00:48:14;8.70;;;4.63;;
83184;SDS011;73080;48.768;11.528;2023-11-18T00:50:40;8.45;;;4.43;;
83184;SDS011;73080;48.768;11.528;2023-11-18T00:53:08;12.18;;;4.63;;
83184;SDS011;73080;48.768;11.528;2023-11-18T00:55:34;8.93;;;3.97;;
83184;SDS011;73080;48.768;11.528;2023-11-18T00:57:59;7.72;;;3.38;;
83184;SDS011;73080;48.768;11.528;2023-11-18T01:00:24;9.93;;;3.97;;
83184;SDS011;73080;48.768;11.528;2023-11-18T01:02:50;8.83;;;3.83;;
83184;SDS011;73080;48.768;11.528;2023-11-18T01:05:15;10.02;;;3.90;;
83184;SDS011;73080;48.768;11.528;2023-11-18T01:07:41;9.80;;;4.45;;
83184;SDS011;73080;48.768;11.528;2023-11-18T01:10:06;9.10;;;4.07;;
83184;SDS011;73080;48.768;11.528;2023-11-18T01:12:33;9.32;;;4.55;;
83184;SDS011;73080;48.768;11.528;2023-11-18T01:14:58;10.65;;;4.32;;
83184;SDS011;73080;48.768;11.528;2023-11-18T01:17:24;9.87;;;4.43;;
83184;SDS011;73080;48.768;11.528;2023-11-18T01:19:49;10.27;;;4.47;;
83184;SDS011;73080;48.768;11.528;2023-11-18T01:22:15;9.80;;;4.45;;
83184;SDS011;73080;48.768;11.528;2023-11-18T01:24:40;9.93;;;4.85;;
83184;SDS011;73080;48.768;11.528;2023-11-18T01:27:06;12.45;;;5.70;;
83184;SDS011;73080;48.768;11.528;2023-11-18T01:29:31;9.65;;;5.53;;
83184;SDS011;73080;48.768;11.528;2023-11-18T01:31:57;14.45;;;5.70;;
83184;SDS011;73080;48.768;11.528;2023-11-18T01:34:25;10.27;;;5.00;;
83184;SDS011;73080;48.768;11.528;2023-11-18T01:36:51;11.48;;;5.55;;
83184;SDS011;73080;48.768;11.528;2023-11-18T01:39:17;11.65;;;5.40;;
83184;SDS011;73080;48.768;11.528;2023-11-18T01:41:45;10.60;;;5.32;;
83184;SDS011;73080;48.768;11.528;2023-11-18T01:44:11;14.05;;;6.13;;
83184;SDS011;73080;48.768;11.528;2023-11-18T01:46:36;11.60;;;6.15;;
83184;SDS011;73080;48.768;11.528;2023-11-18T01:49:02;10.00;;;5.35;;
83184;SDS011;73080;48.768;11.528;2023-11-18T01:51:28;10.55;;;5.80;;
83184;SDS011;73080;48.768;11.528;2023-11-18T01:53:55;12.65;;;6.00;;
83184;SDS011;73080;48.768;11.528;2023-11-18T01:56:26;12.32;;;6.25;;
83184;SDS011;73080;48.768;11.528;2023-11-18T01:58:53;14.18;;;6.65;;
83184;SDS011;73080;48.768;11.528;2023-11-18T02:01:19;13.80;;;6.05;;
83184;SDS011;73080;48.768;11.528;2023-11-18T02:03:47;13.93;;;6.28;;
83184;SDS011;73080;48.768;11.528;2023-11-18T02:08:38;13.32;;;7.03;;
83184;SDS011;73080;48.768;11.528;2023-11-18T02:11:05;15.38;;;7.07;;
83184;SDS011;73080;48.768;11.528;2023-11-18T02:13:41;14.63;;;6.75;;
83184;SDS011;73080;48.768;11.528;2023-11-18T02:16:12;13.65;;;6.90;;
83184;SDS011;73080;48.768;11.528;2023-11-18T02:18:38;14.18;;;6.93;;
83184;SDS011;73080;48.768;11.528;2023-11-18T02:23:32;13.95;;;7.22;;
83184;SDS011;73080;48.768;11.528;2023-11-18T02:25:57;13.35;;;6.18;;
83184;SDS011;73080;48.768;11.528;2023-11-18T02:28:26;14.20;;;6.15;;
83184;SDS011;73080;48.768;11.528;2023-11-18T02:30:53;14.80;;;6.90;;
83184;SDS011;73080;48.768;11.528;2023-11-18T02:33:27;13.57;;;6.13;;
83184;SDS011;73080;48.768;11.528;2023-11-18T02:36:05;13.07;;;6.50;;
83184;SDS011;73080;48.768;11.528;2023-11-18T02:38:35;10.80;;;5.85;;
83184;SDS011;73080;48.768;11.528;2023-11-18T02:41:09;12.48;;;6.05;;
83184;SDS011;73080;48.768;11.528;2023-11-18T02:43:37;15.07;;;5.72;;
83184;SDS011;73080;48.768;11.528;2023-11-18T02:46:05;14.38;;;6.20;;
83184;SDS011;73080;48.768;11.528;2023-11-18T02:48:32;14.00;;;6.18;;
83184;SDS011;73080;48.768;11.528;2023-11-18T02:50:58;13.07;;;6.30;;
83184;SDS011;73080;48.768;11.528;2023-11-18T02:53:24;13.75;;;6.05;;
83184;SDS011;73080;48.768;11.528;2023-11-18T02:55:50;12.70;;;6.47;;
83184;SDS011;73080;48.768;11.528;2023-11-18T02:58:16;11.80;;;5.82;;
83184;SDS011;73080;48.768;11.528;2023-11-18T03:00:41;12.98;;;6.28;;
83184;SDS011;73080;48.768;11.528;2023-11-18T03:03:07;14.15;;;6.43;;
83184;SDS011;73080;48.768;11.528;2023-11-18T03:05:32;12.52;;;6.65;;
83184;SDS011;73080;48.768;11.528;2023-11-18T03:07:58;13.68;;;7.32;;
83184;SDS011;73080;48.768;11.528;2023-11-18T03:10:23;17.20;;;8.00;;
83184;SDS011;73080;48.768;11.528;2023-11-18T03:12:57;13.60;;;6.88;;
83184;SDS011;73080;48.768;11.528;2023-11-18T03:17:54;12.63;;;6.20;;
83184;SDS011;73080;48.768;11.528;2023-11-18T03:20:20;16.67;;;7.75;;
83184;SDS011;73080;48.768;11.528;2023-11-18T03:22:46;15.55;;;6.95;;
83184;SDS011;73080;48.768;11.528;2023-11-18T03:25:12;16.92;;;7.55;;
83184;SDS011;73080;48.768;11.528;2023-11-18T03:27:38;15.30;;;6.97;;
83184;SDS011;73080;48.768;11.528;2023-11-18T03:30:04;15.32;;;7.97;;
83184;SDS011;73080;48.768;11.528;2023-11-18T03:32:30;16.10;;;7.07;;
83184;SDS011;73080;48.768;11.528;2023-11-18T03:34:56;18.40;;;7.22;;
83184;SDS011;73080;48.768;11.528;2023-11-18T03:37:21;14.50;;;6.03;;
83184;SDS011;73080;48.768;11.528;2023-11-18T03:39:46;14.30;;;7.80;;
83184;SDS011;73080;48.768;11.528;2023-11-18T03:42:12;16.50;;;8.05;;
83184;SDS011;73080;48.768;11.528;2023-11-18T03:44:37;15.85;;;7.35;;
83184;SDS011;73080;48.768;11.528;2023-11-18T03:47:03;15.87;;;7.20;;
83184;SDS011;73080;48.768;11.528;2023-11-18T03:49:28;14.73;;;6.70;;
83184;SDS011;73080;48.768;11.528;2023-11-18T03:51:54;19.27;;;7.40;;
83184;SDS011;73080;48.768;11.528;2023-11-18T03:54:19;17.13;;;7.13;;
83184;SDS011;73080;48.768;11.528;2023-11-18T03:56:44;18.13;;;7.65;;
83184;SDS011;73080;48.768;11.528;2023-11-18T03:59:10;14.82;;;6.72;;
83184;SDS011;73080;48.768;11.528;2023-11-18T04:01:35;13.60;;;6.90;;
83184;SDS011;73080;48.768;11.528;2023-11-18T04:04:01;14.90;;;7.32;;
83184;SDS011;73080;48.768;11.528;2023-11-18T04:06:26;18.33;;;7.88;;
83184;SDS011;73080;48.768;11.528;2023-11-18T04:08:51;14.02;;;6.50;;
83184;SDS011;73080;48.768;11.528;2023-11-18T04:11:17;14.47;;;6.50;;
83184;SDS011;73080;48.768;11.528;2023-11-18T04:13:43;14.57;;;6.70;;
83184;SDS011;73080;48.768;11.528;2023-11-18T04:16:15;15.25;;;7.32;;
83184;SDS011;73080;48.768;11.528;2023-11-18T04:18:47;15.10;;;7.20;;
83184;SDS011;73080;48.768;11.528;2023-11-18T04:21:13;16.67;;;7.20;;
83184;SDS011;73080;48.768;11.528;2023-11-18T04:23:42;14.63;;;7.40;;
83184;SDS011;73080;48.768;11.528;2023-11-18T04:26:07;13.70;;;6.60;;
83184;SDS011;73080;48.768;11.528;2023-11-18T04:28:34;15.40;;;6.75;;
83184;SDS011;73080;48.768;11.528;2023-11-18T04:31:00;15.80;;;6.68;;
83184;SDS011;73080;48.768;11.528;2023-11-18T04:33:26;13.98;;;6.22;;
83184;SDS011;73080;48.768;11.528;2023-11-18T04:35:52;14.70;;;7.55;;
83184;SDS011;73080;48.768;11.528;2023-11-18T04:38:18;14.20;;;7.22;;
83184;SDS011;73080;48.768;11.528;2023-11-18T04:40:44;13.93;;;6.68;;
83184;SDS011;73080;48.768;11.528;2023-11-18T04:43:10;15.15;;;6.75;;
83184;SDS011;73080;48.768;11.528;2023-11-18T04:45:35;12.88;;;5.85;;
83184;SDS011;73080;48.768;11.528;2023-11-18T04:48:01;13.60;;;6.10;;
83184;SDS011;73080;48.768;11.528;2023-11-18T04:50:26;14.75;;;6.97;;
83184;SDS011;73080;48.768;11.528;2023-11-18T04:52:51;15.88;;;7.57;;
83184;SDS011;73080;48.768;11.528;2023-11-18T04:55:20;18.55;;;7.47;;
83184;SDS011;73080;48.768;11.528;2023-11-18T04:57:45;15.82;;;7.00;;
83184;SDS011;73080;48.768;11.528;2023-11-18T05:00:11;15.95;;;8.35;;
83184;SDS011;73080;48.768;11.528;2023-11-18T05:02:39;16.40;;;7.90;;
83184;SDS011;73080;48.768;11.528;2023-11-18T05:05:05;17.45;;;7.72;;
83184;SDS011;73080;48.768;11.528;2023-11-18T05:07:30;19.15;;;8.60;;
83184;SDS011;73080;48.768;11.528;2023-11-18T05:09:55;19.83;;;8.17;;
83184;SDS011;73080;48.768;11.528;2023-11-18T05:12:21;18.10;;;8.50;;
83184;SDS011;73080;48.768;11.528;2023-11-18T05:14:46;20.27;;;8.77;;
83184;SDS011;73080;48.768;11.528;2023-11-18T05:17:11;20.70;;;9.20;;
83184;SDS011;73080;48.768;11.528;2023-11-18T05:19:37;24.38;;;8.80;;
83184;SDS011;73080;48.768;11.528;2023-11-18T05:22:02;23.73;;;9.13;;
83184;SDS011;73080;48.768;11.528;2023-11-18T05:24:28;24.05;;;9.57;;
83184;SDS011;73080;48.768;11.528;2023-11-18T05:26:56;26.50;;;9.80;;
83184;SDS011;73080;48.768;11.528;2023-11-18T05:29:21;25.77;;;10.45;;
83184;SDS011;73080;48.768;11.528;2023-11-18T05:31:47;25.40;;;11.67;;
83184;SDS011;73080;48.768;11.528;2023-11-18T05:34:12;24.87;;;10.13;;
83184;SDS011;73080;48.768;11.528;2023-11-18T05:36:37;20.97;;;9.70;;
83184;SDS011;73080;48.768;11.528;2023-11-18T05:39:03;22.90;;;9.83;;
83184;SDS011;73080;48.768;11.528;2023-11-18T05:41:28;18.50;;;8.10;;
83184;SDS011;73080;48.768;11.528;2023-11-18T05:43:54;22.87;;;9.27;;
83184;SDS011;73080;48.768;11.528;2023-11-18T05:46:19;22.35;;;9.07;;
83184;SDS011;73080;48.768;11.528;2023-11-18T05:48:45;20.70;;;8.77;;
83184;SDS011;73080;48.768;11.528;2023-11-18T05:51:10;19.13;;;8.07;;
83184;SDS011;73080;48.768;11.528;2023-11-18T05:53:42;20.42;;;9.00;;
83184;SDS011;73080;48.768;11.528;2023-11-18T05:56:08;18.88;;;7.68;;
83184;SDS011;73080;48.768;11.528;2023-11-18T05:58:34;18.83;;;8.47;;
83184;SDS011;73080;48.768;11.528;2023-11-18T06:00:59;17.30;;;8.70;;
83184;SDS011;73080;48.768;11.528;2023-11-18T06:03:25;16.50;;;8.27;;
83184;SDS011;73080;48.768;11.528;2023-11-18T06:05:50;16.67;;;7.82;;
83184;SDS011;73080;48.768;11.528;2023-11-18T06:08:16;20.35;;;8.98;;
83184;SDS011;73080;48.768;11.528;2023-11-18T06:10:42;16.87;;;8.23;;
83184;SDS011;73080;48.768;11.528;2023-11-18T06:13:07;18.98;;;9.02;;
83184;SDS011;73080;48.768;11.528;2023-11-18T06:15:36;16.88;;;8.05;;
83184;SDS011;73080;48.768;11.528;2023-11-18T06:18:01;17.08;;;8.95;;
83184;SDS011;73080;48.768;11.528;2023-11-18T06:20:26;18.63;;;8.85;;
83184;SDS011;73080;48.768;11.528;2023-11-18T06:23:01;18.98;;;10.07;;
83184;SDS011;73080;48.768;11.528;2023-11-18T06:25:29;17.10;;;8.02;;
83184;SDS011;73080;48.768;11.528;2023-11-18T06:27:55;17.40;;;8.75;;
83184;SDS011;73080;48.768;11.528;2023-11-18T06:30:20;20.30;;;9.98;;
83184;SDS011;73080;48.768;11.528;2023-11-18T06:32:46;21.92;;;10.35;;
83184;SDS011;73080;48.768;11.528;2023-11-18T06:35:11;19.45;;;9.63;;
83184;SDS011;73080;48.768;11.528;2023-11-18T06:37:37;18.70;;;9.82;;
83184;SDS011;73080;48.768;11.528;2023-11-18T06:40:02;20.02;;;9.80;;
83184;SDS011;73080;48.768;11.528;2023-11-18T06:42:28;18.38;;;8.65;;
83184;SDS011;73080;48.768;11.528;2023-11-18T06:44:53;21.13;;;9.48;;
83184;SDS011;73080;48.768;11.528;2023-11-18T06:47:18;19.07;;;9.40;;
83184;SDS011;73080;48.768;11.528;2023-11-18T06:49:44;20.33;;;10.25;;
83184;SDS011;73080;48.768;11.528;2023-11-18T06:52:12;19.83;;;10.18;;
83184;SDS011;73080;48.768;11.528;2023-11-18T06:54:37;20.77;;;10.07;;
83184;SDS011;73080;48.768;11.528;2023-11-18T06:57:02;18.70;;;8.63;;
83184;SDS011;73080;48.768;11.528;2023-11-18T06:59:28;18.67;;;9.57;;
83184;SDS011;73080;48.768;11.528;2023-11-18T07:01:53;18.03;;;9.10;;
83184;SDS011;73080;48.768;11.528;2023-11-18T07:04:21;16.93;;;8.73;;
83184;SDS011;73080;48.768;11.528;2023-11-18T07:06:46;17.92;;;9.18;;
83184;SDS011;73080;48.768;11.528;2023-11-18T07:09:12;19.52;;;9.85;;
83184;SDS011;73080;48.768;11.528;2023-11-18T07:11:41;20.27;;;9.73;;
83184;SDS011;73080;48.768;11.528;2023-11-18T07:14:07;22.42;;;10.73;;
83184;SDS011;73080;48.768;11.528;2023-11-18T07:16:35;20.83;;;10.27;;
83184;SDS011;73080;48.768;11.528;2023-11-18T07:19:05;21.67;;;10.20;;
83184;SDS011;73080;48.768;11.528;2023-11-18T07:21:30;22.33;;;11.70;;
83184;SDS011;73080;48.768;11.528;2023-11-18T07:23:56;22.80;;;11.98;;
83184;SDS011;73080;48.768;11.528;2023-11-18T07:26:21;28.95;;;14.93;;
83184;SDS011;73080;48.768;11.528;2023-11-18T07:28:47;25.75;;;12.88;;
83184;SDS011;73080;48.768;11.528;2023-11-18T07:31:12;25.27;;;11.80;;
83184;SDS011;73080;48.768;11.528;2023-11-18T07:33:38;24.27;;;11.98;;
83184;SDS011;73080;48.768;11.528;2023-11-18T07:36:03;24.30;;;12.68;;
83184;SDS011;73080;48.768;11.528;2023-11-18T07:38:29;24.15;;;13.05;;
83184;SDS011;73080;48.768;11.528;2023-11-18T07:40:55;24.30;;;11.57;;
83184;SDS011;73080;48.768;11.528;2023-11-18T07:43:20;26.98;;;12.63;;
83184;SDS011;73080;48.768;11.528;2023-11-18T07:45:45;22.50;;;11.32;;
83184;SDS011;73080;48.768;11.528;2023-11-18T07:48:11;26.27;;;12.52;;
83184;SDS011;73080;48.768;11.528;2023-11-18T07:50:40;22.30;;;12.13;;
83184;SDS011;73080;48.768;11.528;2023-11-18T07:53:05;20.33;;;10.45;;
83184;SDS011;73080;48.768;11.528;2023-11-18T07:55:31;20.80;;;11.70;;
83184;SDS011;73080;48.768;11.528;2023-11-18T07:58:02;20.38;;;10.30;;
83184;SDS011;73080;48.768;11.528;2023-11-18T08:00:28;22.23;;;11.60;;
83184;SDS011;73080;48.768;11.528;2023-11-18T08:02:54;22.38;;;12.15;;
83184;SDS011;73080;48.768;11.528;2023-11-18T08:05:19;20.40;;;9.73;;
83184;SDS011;73080;48.768;11.528;2023-11-18T08:07:44;21.48;;;10.43;;
83184;SDS011;73080;48.768;11.528;2023-11-18T08:10:10;22.35;;;11.95;;
83184;SDS011;73080;48.768;11.528;2023-11-18T08:12:41;20.02;;;9.95;;
83184;SDS011;73080;48.768;11.528;2023-11-18T08:15:06;18.00;;;10.15;;
83184;SDS011;73080;48.768;11.528;2023-11-18T08:17:32;17.88;;;8.93;;
83184;SDS011;73080;48.768;11.528;2023-11-18T08:19:58;20.58;;;10.13;;
83184;SDS011;73080;48.768;11.528;2023-11-18T08:22:23;19.08;;;9.63;;
83184;SDS011;73080;48.768;11.528;2023-11-18T08:24:49;21.65;;;11.13;;
83184;SDS011;73080;48.768;11.528;2023-11-18T08:27:15;18.80;;;10.07;;
83184;SDS011;73080;48.768;11.528;2023-11-18T08:29:40;20.23;;;9.73;;
83184;SDS011;73080;48.768;11.528;2023-11-18T08:32:09;19.42;;;9.43;;
83184;SDS011;73080;48.768;11.528;2023-11-18T08:34:34;17.88;;;9.90;;
83184;SDS011;73080;48.768;11.528;2023-11-18T08:37:01;17.65;;;8.95;;
83184;SDS011;73080;48.768;11.528;2023-11-18T08:39:26;17.13;;;8.77;;
83184;SDS011;73080;48.768;11.528;2023-11-18T08:41:54;17.60;;;9.10;;
83184;SDS011;73080;48.768;11.528;2023-11-18T08:44:20;17.35;;;8.82;;
83184;SDS011;73080;48.768;11.528;2023-11-18T08:46:45;16.17;;;8.02;;
83184;SDS011;73080;48.768;11.528;2023-11-18T08:49:10;17.13;;;9.55;;
83184;SDS011;73080;48.768;11.528;2023-11-18T08:51:42;17.73;;;9.45;;
83184;SDS011;73080;48.768;11.528;2023-11-18T08:54:07;16.08;;;9.00;;
83184;SDS011;73080;48.768;11.528;2023-11-18T08:56:33;19.65;;;10.23;;
83184;SDS011;73080;48.768;11.528;2023-11-18T08:58:58;19.85;;;9.88;;
83184;SDS011;73080;48.768;11.528;2023-11-18T09:01:23;21.80;;;11.00;;
83184;SDS011;73080;48.768;11.528;2023-11-18T09:03:49;19.10;;;10.33;;
83184;SDS011;73080;48.768;11.528;2023-11-18T09:06:17;22.33;;;10.87;;
83184;SDS011;73080;48.768;11.528;2023-11-18T09:08:46;21.70;;;10.00;;
83184;SDS011;73080;48.768;11.528;2023-11-18T09:11:14;19.85;;;10.98;;
83184;SDS011;73080;48.768;11.528;2023-11-18T09:13:40;14.23;;;7.68;;
83184;SDS011;73080;48.768;11.528;2023-11-18T09:16:14;15.05;;;7.97;;
83184;SDS011;73080;48.768;11.528;2023-11-18T09:18:41;11.43;;;6.13;;
83184;SDS011;73080;48.768;11.528;2023-11-18T09:21:08;14.88;;;7.70;;
83184;SDS011;73080;48.768;11.528;2023-11-18T09:23:34;12.95;;;7.20;;
83184;SDS011;73080;48.768;11.528;2023-11-18T09:26:00;16.17;;;8.88;;
83184;SDS011;73080;48.768;11.528;2023-11-18T09:28:26;13.90;;;8.00;;
83184;SDS011;73080;48.768;11.528;2023-11-18T09:30:52;14.43;;;7.35;;
83184;SDS011;73080;48.768;11.528;2023-11-18T09:33:18;13.75;;;7.60;;
83184;SDS011;73080;48.768;11.528;2023-11-18T09:35:45;12.38;;;5.82;;
83184;SDS011;73080;48.768;11.528;2023-11-18T09:38:10;10.65;;;6.82;;
83184;SDS011;73080;48.768;11.528;2023-11-18T09:40:35;9.83;;;5.80;;
83184;SDS011;73080;48.768;11.528;2023-11-18T09:43:08;10.93;;;6.15;;
83184;SDS011;73080;48.768;11.528;2023-11-18T09:45:38;10.27;;;5.90;;
83184;SDS011;73080;48.768;11.528;2023-11-18T09:48:04;10.15;;;4.93;;
83184;SDS011;73080;48.768;11.528;2023-11-18T09:50:31;7.78;;;3.97;;
83184;SDS011;73080;48.768;11.528;2023-11-18T09:52:58;7.50;;;3.70;;
83184;SDS011;73080;48.768;11.528;2023-11-18T09:55:36;9.25;;;4.55;;
83184;SDS011;73080;48.768;11.528;2023-11-18T09:58:14;7.63;;;3.97;;
83184;SDS011;73080;48.768;11.528;2023-11-18T10:00:42;9.00;;;4.18;;
83184;SDS011;73080;48.768;11.528;2023-11-18T10:03:12;9.77;;;4.88;;
83184;SDS011;73080;48.768;11.528;2023-11-18T10:05:39;9.73;;;4.97;;
83184;SDS011;73080;48.768;11.528;2023-11-18T10:08:08;8.63;;;4.90;;
83184;SDS011;73080;48.768;11.528;2023-11-18T10:10:35;8.45;;;5.15;;
83184;SDS011;73080;48.768;11.528;2023-11-18T10:13:03;7.97;;;4.28;;
83184;SDS011;73080;48.768;11.528;2023-11-18T10:15:29;7.78;;;4.43;;
83184;SDS011;73080;48.768;11.528;2023-11-18T10:17:55;9.32;;;4.45;;
83184;SDS011;73080;48.768;11.528;2023-11-18T10:20:21;7.33;;;4.17;;
83184;SDS011;73080;48.768;11.528;2023-11-18T10:22:54;7.50;;;4.03;;
83184;SDS011;73080;48.768;11.528;2023-11-18T10:25:31;7.03;;;3.70;;
83184;SDS011;73080;48.768;11.528;2023-11-18T10:27:56;6.60;;;3.27;;
83184;SDS011;73080;48.768;11.528;2023-11-18T10:30:21;7.10;;;3.73;;
83184;SDS011;73080;48.768;11.528;2023-11-18T10:33:04;7.90;;;3.88;;
83184;SDS011;73080;48.768;11.528;2023-11-18T10:35:32;7.18;;;4.30;;
83184;SDS011;73080;48.768;11.528;2023-11-18T10:37:57;7.30;;;3.80;;
83184;SDS011;73080;48.768;11.528;2023-11-18T10:40:27;8.52;;;4.40;;
83184;SDS011;73080;48.768;11.528;2023-11-18T10:42:53;7.47;;;3.50;;
83184;SDS011;73080;48.768;11.528;2023-11-18T10:45:24;6.40;;;3.72;;
83184;SDS011;73080;48.768;11.528;2023-11-18T10:47:50;6.60;;;3.08;;
83184;SDS011;73080;48.768;11.528;2023-11-18T10:50:16;7.82;;;3.45;;
83184;SDS011;73080;48.768;11.528;2023-11-18T10:52:41;7.60;;;3.70;;
83184;SDS011;73080;48.768;11.528;2023-11-18T10:55:06;6.03;;;3.13;;
83184;SDS011;73080;48.768;11.528;2023-11-18T10:57:32;5.95;;;2.95;;
83184;SDS011;73080;48.768;11.528;2023-11-18T11:00:04;6.65;;;3.85;;
83184;SDS011;73080;48.768;11.528;2023-11-18T11:02:34;5.88;;;2.88;;
83184;SDS011;73080;48.768;11.528;2023-11-18T11:07:24;5.80;;;2.97;;
83184;SDS011;73080;48.768;11.528;2023-11-18T11:09:51;5.97;;;3.05;;
83184;SDS011;73080;48.768;11.528;2023-11-18T11:12:16;5.80;;;3.07;;
83184;SDS011;73080;48.768;11.528;2023-11-18T11:14:59;5.97;;;3.30;;
83184;SDS011;73080;48.768;11.528;2023-11-18T11:17:27;6.30;;;3.55;;
83184;SDS011;73080;48.768;11.528;2023-11-18T11:19:53;5.97;;;3.00;;
83184;SDS011;73080;48.768;11.528;2023-11-18T11:22:35;6.68;;;3.55;;
83184;SDS011;73080;48.768;11.528;2023-11-18T11:25:16;11.18;;;3.65;;
83184;SDS011;73080;48.768;11.528;2023-11-18T11:27:50;7.88;;;4.15;;
83184;SDS011;73080;48.768;11.528;2023-11-18T11:30:23;8.98;;;4.82;;
83184;SDS011;73080;48.768;11.528;2023-11-18T11:32:52;6.90;;;3.75;;
83184;SDS011;73080;48.768;11.528;2023-11-18T11:35:26;6.05;;;3.15;;
83184;SDS011;73080;48.768;11.528;2023-11-18T11:37:56;7.75;;;3.05;;
83184;SDS011;73080;48.768;11.528;2023-11-18T11:40:23;6.40;;;3.53;;
83184;SDS011;73080;48.768;11.528;2023-11-18T11:42:54;6.40;;;2.97;;
83184;SDS011;73080;48.768;11.528;2023-11-18T11:45:19;6.72;;;2.22;;
83184;SDS011;73080;48.768;11.528;2023-11-18T11:47:48;5.03;;;2.47;;
83184;SDS011;73080;48.768;11.528;2023-11-18T11:50:52;5.50;;;3.30;;
83184;SDS011;73080;48.768;11.528;2023-11-18T11:53:22;4.75;;;2.20;;
83184;SDS011;73080;48.768;11.528;2023-11-18T11:55:54;5.32;;;2.70;;
83184;SDS011;73080;48.768;11.528;2023-11-18T11:58:26;5.50;;;2.30;;
83184;SDS011;73080;48.768;11.528;2023-11-18T12:00:54;4.55;;;2.30;;
83184;SDS011;73080;48.768;11.528;2023-11-18T12:03:21;5.15;;;2.03;;
83184;SDS011;73080;48.768;11.528;2023-11-18T12:05:47;4.65;;;2.22;;
83184;SDS011;73080;48.768;11.528;2023-11-18T12:08:15;7.22;;;2.75;;
83184;SDS011;73080;48.768;11.528;2023-11-18T12:10:49;4.50;;;2.03;;
83184;SDS011;73080;48.768;11.528;2023-11-18T12:13:19;4.80;;;2.05;;
83184;SDS011;73080;48.768;11.528;2023-11-18T12:15:48;5.03;;;2.70;;
83184;SDS011;73080;48.768;11.528;2023-11-18T12:18:18;5.43;;;2.90;;
83184;SDS011;73080;48.768;11.528;2023-11-18T12:20:44;4.57;;;2.17;;
83184;SDS011;73080;48.768;11.528;2023-11-18T12:23:09;4.75;;;2.50;;
83184;SDS011;73080;48.768;11.528;2023-11-18T12:25:35;4.38;;;1.92;;
83184;SDS011;73080;48.768;11.528;2023-11-18T12:28:06;7.35;;;3.33;;
83184;SDS011;73080;48.768;11.528;2023-11-18T12:35:29;5.18;;;2.00;;
83184;SDS011;73080;48.768;11.528;2023-11-18T12:43:16;3.78;;;1.63;;
83184;SDS011;73080;48.768;11.528;2023-11-18T12:45:42;4.13;;;2.03;;
83184;SDS011;73080;48.768;11.528;2023-11-18T12:48:20;4.38;;;1.73;;
83184;SDS011;73080;48.768;11.528;2023-11-18T12:50:46;4.38;;;1.90;;
83184;SDS011;73080;48.768;11.528;2023-11-18T12:53:15;4.25;;;1.83;;
83184;SDS011;73080;48.768;11.528;2023-11-18T12:55:40;5.05;;;1.65;;
83184;SDS011;73080;48.768;11.528;2023-11-18T12:58:07;3.97;;;1.85;;
83184;SDS011;73080;48.768;11.528;2023-11-18T13:00:32;3.53;;;1.60;;
83184;SDS011;73080;48.768;11.528;2023-11-18T13:02:58;3.47;;;1.40;;
83184;SDS011;73080;48.768;11.528;2023-11-18T13:05:23;4.13;;;1.40;;
83184;SDS011;73080;48.768;11.528;2023-11-18T13:07:49;3.45;;;1.25;;
83184;SDS011;73080;48.768;11.528;2023-11-18T13:10:15;3.22;;;1.30;;
83184;SDS011;73080;48.768;11.528;2023-11-18T13:12:41;4.13;;;1.50;;
83184;SDS011;73080;48.768;11.528;2023-11-18T13:15:08;4.05;;;1.42;;
83184;SDS011;73080;48.768;11.528;2023-11-18T13:17:34;5.18;;;2.20;;
83184;SDS011;73080;48.768;11.528;2023-11-18T13:20:20;5.72;;;1.65;;
83184;SDS011;73080;48.768;11.528;2023-11-18T13:22:45;4.68;;;1.50;;
83184;SDS011;73080;48.768;11.528;2023-11-18T13:25:11;3.80;;;1.60;;
83184;SDS011;73080;48.768;11.528;2023-11-18T13:27:40;4.00;;;1.60;;
83184;SDS011;73080;48.768;11.528;2023-11-18T13:30:08;4.10;;;1.70;;
83184;SDS011;73080;48.768;11.528;2023-11-18T13:32:34;4.35;;;2.00;;
83184;SDS011;73080;48.768;11.528;2023-11-18T13:35:00;3.63;;;1.65;;
83184;SDS011;73080;48.768;11.528;2023-11-18T13:37:27;4.10;;;1.55;;
83184;SDS011;73080;48.768;11.528;2023-11-18T13:40:01;5.65;;;2.40;;
83184;SDS011;73080;48.768;11.528;2023-11-18T13:42:33;6.85;;;3.55;;
83184;SDS011;73080;48.768;11.528;2023-11-18T13:44:59;5.60;;;2.72;;
83184;SDS011;73080;48.768;11.528;2023-11-18T13:47:27;8.00;;;4.38;;
83184;SDS011;73080;48.768;11.528;2023-11-18T13:49:59;5.53;;;2.60;;
83184;SDS011;73080;48.768;11.528;2023-11-18T13:52:24;5.03;;;2.58;;
83184;SDS011;73080;48.768;11.528;2023-11-18T13:54:50;7.00;;;3.30;;
83184;SDS011;73080;48.768;11.528;2023-11-18T13:57:15;4.85;;;2.30;;
83184;SDS011;73080;48.768;11.528;2023-11-18T13:59:44;4.38;;;2.13;;
83184;SDS011;73080;48.768;11.528;2023-11-18T14:04:39;4.53;;;1.80;;
83184;SDS011;73080;48.768;11.528;2023-11-18T14:07:05;3.97;;;1.85;;
83184;SDS011;73080;48.768;11.528;2023-11-18T14:09:33;5.10;;;2.42;;
83184;SDS011;73080;48.768;11.528;2023-11-18T14:11:58;7.57;;;2.65;;
83184;SDS011;73080;48.768;11.528;2023-11-18T14:14:24;4.43;;;2.03;;
83184;SDS011;73080;48.768;11.528;2023-11-18T14:16:49;9.52;;;4.13;;
83184;SDS011;73080;48.768;11.528;2023-11-18T14:19:15;7.82;;;3.38;;
83184;SDS011;73080;48.768;11.528;2023-11-18T14:21:40;8.43;;;3.58;;
83184;SDS011;73080;48.768;11.528;2023-11-18T14:24:10;6.78;;;3.38;;
83184;SDS011;73080;48.768;11.528;2023-11-18T14:26:35;7.50;;;3.83;;
83184;SDS011;73080;48.768;11.528;2023-11-18T14:29:01;6.90;;;2.88;;
83184;SDS011;73080;48.768;11.528;2023-11-18T14:31:29;6.90;;;3.03;;
83184;SDS011;73080;48.768;11.528;2023-11-18T14:33:54;5.80;;;2.58;;
83184;SDS011;73080;48.768;11.528;2023-11-18T14:36:20;7.57;;;2.47;;
83184;SDS011;73080;48.768;11.528;2023-11-18T14:38:46;12.35;;;6.18;;
83184;SDS011;73080;48.768;11.528;2023-11-18T14:41:14;6.45;;;3.30;;
83184;SDS011;73080;48.768;11.528;2023-11-18T14:43:40;6.43;;;3.15;;
83184;SDS011;73080;48.768;11.528;2023-11-18T14:46:05;5.60;;;3.00;;
83184;SDS011;73080;48.768;11.528;2023-11-18T14:48:30;6.68;;;3.20;;